createdAt,value
2018-07-26T00:00:53.429Z,97649.52
2018-07-26T00:03:22.750Z,97643.09
2018-07-26T00:05:52.009Z,97648.68
2018-07-26T00:08:21.265Z,97651.36
2018-07-26T00:10:50.509Z,97649.44
2018-07-26T00:13:19.517Z,97648.38
2018-07-26T00:15:48.739Z,97647.97
2018-07-26T00:18:18.002Z,97642.64
2018-07-26T00:20:47.242Z,97648.08
2018-07-26T00:23:16.498Z,97640.91
2018-07-26T00:25:45.745Z,97634.84
2018-07-26T00:28:14.996Z,97636.48
2018-07-26T00:30:44.200Z,97637.20
2018-07-26T00:33:13.478Z,97641.56
2018-07-26T00:35:42.711Z,97641.09
2018-07-26T00:38:12.014Z,97645.28
2018-07-26T00:40:41.276Z,97639.54
2018-07-26T00:43:10.537Z,97648.13
2018-07-26T00:45:39.788Z,97649.85
2018-07-26T00:48:09.037Z,97641.88
2018-07-26T00:50:38.309Z,97638.02
2018-07-26T00:53:07.539Z,97639.17
2018-07-26T00:55:36.917Z,97641.28
2018-07-26T00:58:06.442Z,97648.59
2018-07-26T01:00:35.954Z,97645.14
2018-07-26T01:03:05.249Z,97647.20
2018-07-26T01:05:34.505Z,97645.42
2018-07-26T01:08:03.779Z,97645.47
2018-07-26T01:10:33.078Z,97649.00
2018-07-26T01:13:02.393Z,97642.72
2018-07-26T01:15:31.734Z,97639.22
2018-07-26T01:18:01.012Z,97640.02
2018-07-26T01:20:30.387Z,97645.20
2018-07-26T01:22:59.642Z,97640.09
2018-07-26T01:25:28.902Z,97639.12
2018-07-26T01:27:58.161Z,97639.31
2018-07-26T01:30:27.501Z,97644.72
2018-07-26T01:32:56.765Z,97646.91
2018-07-26T01:35:26.083Z,97648.08
2018-07-26T01:37:55.387Z,97647.48
2018-07-26T01:40:24.698Z,97642.56
2018-07-26T01:43:11.169Z,97645.70
2018-07-26T01:45:40.669Z,97641.95
2018-07-26T01:48:09.954Z,97646.98
2018-07-26T01:50:39.513Z,97644.65
2018-07-26T01:53:08.984Z,97648.84
2018-07-26T01:55:38.297Z,97645.27
2018-07-26T01:58:07.565Z,97648.27
2018-07-26T02:00:36.863Z,97647.65
2018-07-26T02:03:06.086Z,97650.16
2018-07-26T02:05:35.313Z,97645.09
2018-07-26T02:08:04.586Z,97649.47
2018-07-26T02:10:33.856Z,97651.11
2018-07-26T02:13:03.082Z,97650.06
2018-07-26T02:15:32.298Z,97654.66
2018-07-26T02:18:01.538Z,97654.06
2018-07-26T02:20:30.769Z,97652.28
2018-07-26T02:23:00.016Z,97660.37
2018-07-26T02:25:29.267Z,97653.63
2018-07-26T02:27:58.477Z,97660.41
2018-07-26T02:30:27.742Z,97655.60
2018-07-26T02:32:56.971Z,97662.09
2018-07-26T02:35:26.250Z,97662.64
2018-07-26T02:37:55.543Z,97659.56
2018-07-26T02:40:24.780Z,97661.55
2018-07-26T02:42:54.074Z,97656.34
2018-07-26T02:45:23.330Z,97661.64
2018-07-26T02:47:52.578Z,97663.41
2018-07-26T02:50:21.972Z,97663.61
2018-07-26T02:52:51.196Z,97667.45
2018-07-26T02:55:20.557Z,97666.84
2018-07-26T02:57:49.786Z,97666.95
2018-07-26T03:00:19.023Z,97669.64
2018-07-26T03:02:48.260Z,97662.27
2018-07-26T03:05:17.590Z,97668.94
2018-07-26T03:07:46.587Z,97666.41
2018-07-26T03:10:15.826Z,97663.38
2018-07-26T03:12:45.203Z,97678.56
2018-07-26T03:15:14.425Z,97672.11
2018-07-26T03:17:43.721Z,97670.16
2018-07-26T03:20:13.046Z,97673.66
2018-07-26T03:22:42.311Z,97671.86
2018-07-26T03:25:11.522Z,97674.20
2018-07-26T03:27:40.818Z,97671.56
2018-07-26T03:30:10.054Z,97670.25
2018-07-26T03:32:39.293Z,97678.98
2018-07-26T03:35:08.504Z,97676.34
2018-07-26T03:37:37.757Z,97677.86
2018-07-26T03:40:07.303Z,97684.34
2018-07-26T03:42:36.525Z,97682.28
2018-07-26T03:45:06.314Z,97683.72
2018-07-26T03:47:35.568Z,97683.44
2018-07-26T03:50:05.206Z,97694.22
2018-07-26T03:52:34.471Z,97687.77
2018-07-26T03:55:03.716Z,97697.78
2018-07-26T03:57:32.999Z,97694.22
2018-07-26T04:00:02.286Z,97694.77
2018-07-26T04:02:31.651Z,97694.77
2018-07-26T04:05:00.962Z,97698.80
2018-07-26T04:07:30.289Z,97700.13
2018-07-26T04:09:59.555Z,97694.77
2018-07-26T04:12:28.922Z,97699.34
2018-07-26T04:14:58.290Z,97695.77
2018-07-26T04:17:27.622Z,97693.67
2018-07-26T04:19:56.934Z,97698.32
2018-07-26T04:22:26.168Z,97693.95
2018-07-26T04:24:55.581Z,97694.82
2018-07-26T04:27:24.860Z,97695.08
2018-07-26T04:29:54.237Z,97695.77
2018-07-26T04:32:23.520Z,97696.22
2018-07-26T04:34:52.887Z,97697.50
2018-07-26T04:37:22.142Z,97698.82
2018-07-26T04:39:51.176Z,97705.41
2018-07-26T04:42:20.621Z,97702.90
2018-07-26T04:44:49.932Z,97696.52
2018-07-26T04:47:19.228Z,97704.51
2018-07-26T04:49:48.637Z,97702.45
2018-07-26T04:52:18.003Z,97709.39
2018-07-26T04:54:47.272Z,97713.87
2018-07-26T04:57:16.535Z,97713.39
2018-07-26T04:59:45.842Z,97710.09
2018-07-26T05:02:15.190Z,97714.91
2018-07-26T05:04:44.482Z,97713.16
2018-07-26T05:07:13.745Z,97714.25
2018-07-26T05:09:43.072Z,97718.91
2018-07-26T05:12:12.350Z,97722.92
2018-07-26T05:14:41.628Z,97722.49
2018-07-26T05:17:10.888Z,97723.59
2018-07-26T05:19:40.155Z,97713.16
2018-07-26T05:22:09.406Z,97712.27
2018-07-26T05:24:38.682Z,97720.23
2018-07-26T05:27:08.503Z,97716.42
2018-07-26T05:29:37.897Z,97721.03
2018-07-26T05:32:07.167Z,97718.39
2018-07-26T05:34:36.590Z,97718.31
2018-07-26T05:37:05.827Z,97718.47
2018-07-26T05:39:35.080Z,97726.10
2018-07-26T05:42:04.353Z,97721.36
2018-07-26T05:44:33.572Z,97718.83
2018-07-26T05:47:02.784Z,97712.82
2018-07-26T05:49:32.017Z,97715.04
2018-07-26T05:52:01.269Z,97720.83
2018-07-26T05:54:30.522Z,97730.36
2018-07-26T05:57:00.066Z,97737.72
2018-07-26T05:59:29.317Z,97736.39
2018-07-26T06:01:58.802Z,97736.53
2018-07-26T06:04:28.090Z,97737.98
2018-07-26T06:06:57.426Z,97737.03
2018-07-26T06:09:26.777Z,97741.09
2018-07-26T06:11:56.178Z,97745.50
2018-07-26T06:14:25.500Z,97747.20
2018-07-26T06:16:54.814Z,97754.77
2018-07-26T06:19:24.203Z,97744.77
2018-07-26T06:21:53.504Z,97748.09
2018-07-26T06:24:22.878Z,97752.15
2018-07-26T06:26:52.207Z,97756.44
2018-07-26T06:29:21.765Z,97752.39
2018-07-26T06:31:51.120Z,97758.11
2018-07-26T06:34:20.754Z,97756.70
2018-07-26T06:36:50.094Z,97749.98
2018-07-26T06:39:19.502Z,97751.66
2018-07-26T06:41:48.942Z,97752.66
2018-07-26T06:44:18.767Z,97759.29
2018-07-26T06:46:48.095Z,97749.66
2018-07-26T06:49:17.407Z,97748.66
2018-07-26T06:51:46.765Z,97771.73
2018-07-26T06:54:16.170Z,97761.22
2018-07-26T06:56:45.511Z,97764.91
2018-07-26T06:59:14.986Z,97761.39
2018-07-26T07:01:44.341Z,97755.98
2018-07-26T07:04:13.660Z,97763.80
2018-07-26T07:06:42.788Z,97755.98
2018-07-26T07:09:12.798Z,97756.67
2018-07-26T07:11:42.199Z,97762.06
2018-07-26T07:14:11.582Z,97764.70
2018-07-26T07:16:41.066Z,97763.27
2018-07-26T07:19:10.442Z,97758.22
2018-07-26T07:21:39.718Z,97765.48
2018-07-26T07:24:09.074Z,97766.34
2018-07-26T07:26:38.346Z,97755.66
2018-07-26T07:29:07.853Z,97754.52
2018-07-26T07:31:37.192Z,97755.88
2018-07-26T07:34:06.718Z,97753.17
2018-07-26T07:36:35.992Z,97755.36
2018-07-26T07:39:08.904Z,97751.75
2018-07-26T07:41:38.347Z,97755.49
2018-07-26T07:44:08.462Z,97756.23
2018-07-26T07:46:37.940Z,97752.69
2018-07-26T07:49:07.611Z,97755.01
2018-07-26T07:51:36.898Z,97755.66
2018-07-26T07:54:06.204Z,97755.75
2018-07-26T07:56:35.457Z,97761.05
2018-07-26T07:59:04.973Z,97756.34
2018-07-26T08:01:34.295Z,97757.22
2018-07-26T08:04:03.577Z,97750.05
2018-07-26T08:06:32.973Z,97759.90
2018-07-26T08:09:02.249Z,97758.58
2018-07-26T08:11:31.567Z,97758.91
2018-07-26T08:14:00.783Z,97760.80
2018-07-26T08:16:30.035Z,97760.14
2018-07-26T08:18:59.310Z,97764.56
2018-07-26T08:21:28.566Z,97771.75
2018-07-26T08:23:57.799Z,97770.07
2018-07-26T08:26:27.103Z,97764.45
2018-07-26T08:28:56.148Z,97763.33
2018-07-26T08:31:25.423Z,97771.27
2018-07-26T08:33:54.779Z,97760.19
2018-07-26T08:36:24.193Z,97763.05
2018-07-26T08:38:53.470Z,97766.45
2018-07-26T08:41:29.190Z,97763.77
2018-07-26T08:43:58.470Z,97757.55
2018-07-26T08:46:27.713Z,97752.55
2018-07-26T08:48:56.970Z,97753.92
2018-07-26T08:51:26.534Z,97760.83
2018-07-26T08:53:55.858Z,97764.53
2018-07-26T08:56:25.205Z,97761.83
2018-07-26T08:58:54.533Z,97752.86
2018-07-26T09:01:23.837Z,97758.33
2018-07-26T09:03:53.224Z,97761.94
2018-07-26T09:06:22.682Z,97756.70
2018-07-26T09:08:52.079Z,97757.17
2018-07-26T09:11:21.398Z,97755.52
2018-07-26T09:13:50.793Z,97749.59
2018-07-26T09:16:20.042Z,97751.64
2018-07-26T09:18:49.549Z,97745.32
2018-07-26T09:21:18.852Z,97746.61
2018-07-26T09:23:48.136Z,97749.66
2018-07-26T09:26:17.721Z,97747.00
2018-07-26T09:28:46.990Z,97744.08
2018-07-26T09:31:16.460Z,97746.77
2018-07-26T09:33:45.871Z,97737.25
2018-07-26T09:36:15.133Z,97732.70
2018-07-26T09:38:44.560Z,97734.30
2018-07-26T09:41:14.842Z,97740.81
2018-07-26T09:43:44.865Z,97739.95
2018-07-26T09:46:14.495Z,97747.77
2018-07-26T09:48:44.080Z,97736.87
2018-07-26T09:51:13.439Z,97733.49
2018-07-26T09:53:42.735Z,97732.73
2018-07-26T09:56:12.029Z,97729.42
2018-07-26T09:58:41.425Z,97734.01
2018-07-26T10:01:15.901Z,97729.80
2018-07-26T10:03:45.262Z,97726.81
2018-07-26T10:06:14.589Z,97729.73
2018-07-26T10:08:44.050Z,97724.01
2018-07-26T10:11:13.370Z,97738.93
2018-07-26T10:13:42.678Z,97731.82
2018-07-26T10:16:11.999Z,97730.55
2018-07-26T10:18:41.054Z,97719.42
2018-07-26T10:21:10.415Z,97718.52
2018-07-26T10:23:39.759Z,97719.53
2018-07-26T10:26:09.057Z,97727.47
2018-07-26T10:28:38.451Z,97717.80
2018-07-26T10:31:08.183Z,97717.27
2018-07-26T10:33:37.676Z,97714.77
2018-07-26T10:36:06.987Z,97716.35
2018-07-26T10:38:36.384Z,97702.64
2018-07-26T10:41:05.720Z,97707.50
2018-07-26T10:43:35.030Z,97705.02
2018-07-26T10:46:04.400Z,97709.22
2018-07-26T10:48:33.761Z,97700.27
2018-07-26T10:51:03.078Z,97703.84
2018-07-26T10:53:32.363Z,97704.45
2018-07-26T10:56:01.675Z,97700.09
2018-07-26T10:58:31.002Z,97696.12
2018-07-26T11:01:00.351Z,97696.44
2018-07-26T11:03:29.815Z,97697.03
2018-07-26T11:05:59.285Z,97700.09
2018-07-26T11:08:28.750Z,97695.02
2018-07-26T11:10:58.135Z,97692.14
2018-07-26T11:13:27.461Z,97693.84
2018-07-26T11:15:56.817Z,97692.91
2018-07-26T11:18:26.769Z,97685.28
2018-07-26T11:20:56.158Z,97689.55
2018-07-26T11:23:25.589Z,97683.62
2018-07-26T11:25:54.902Z,97678.28
2018-07-26T11:28:24.197Z,97689.97
2018-07-26T11:30:53.570Z,97676.96
2018-07-26T11:33:22.873Z,97672.06
2018-07-26T11:35:52.200Z,97667.52
2018-07-26T11:38:21.492Z,97663.39
2018-07-26T11:40:50.579Z,97662.45
2018-07-26T11:43:19.953Z,97663.80
2018-07-26T11:45:49.411Z,97648.88
2018-07-26T11:48:18.714Z,97653.37
2018-07-26T11:50:48.152Z,97661.86
2018-07-26T11:53:17.567Z,97653.83
2018-07-26T11:55:46.902Z,97647.52
2018-07-26T11:58:16.220Z,97645.03
2018-07-26T12:00:45.525Z,97646.24
2018-07-26T12:03:14.808Z,97640.85
2018-07-26T12:05:44.134Z,97645.45
2018-07-26T12:08:13.434Z,97631.33
2018-07-26T12:10:42.706Z,97635.84
2018-07-26T12:13:12.026Z,97630.54
2018-07-26T12:15:41.378Z,97628.75
2018-07-26T12:18:10.730Z,97635.27
2018-07-26T12:20:40.078Z,97634.06
2018-07-26T12:23:09.429Z,97639.41
2018-07-26T12:25:38.700Z,97627.41
2018-07-26T12:28:08.450Z,97626.83
2018-07-26T12:30:37.710Z,97625.22
2018-07-26T12:33:06.993Z,97624.25
2018-07-26T12:35:36.429Z,97625.79
2018-07-26T12:38:05.702Z,97623.45
2018-07-26T12:40:35.004Z,97617.92
2018-07-26T12:43:04.270Z,97615.98
2018-07-26T12:45:33.605Z,97621.06
2018-07-26T12:48:03.002Z,97621.28
2018-07-26T12:50:32.455Z,97624.05
2018-07-26T12:53:01.911Z,97615.76
2018-07-26T12:55:30.927Z,97608.73
2018-07-26T12:58:00.320Z,97609.46
2018-07-26T13:00:29.630Z,97611.64
2018-07-26T13:02:59.001Z,97607.41
2018-07-26T13:05:28.327Z,97615.95
2018-07-26T13:07:57.706Z,97617.51
2018-07-26T13:10:27.215Z,97614.94
2018-07-26T13:12:56.308Z,97609.09
2018-07-26T13:15:25.658Z,97599.23
2018-07-26T13:17:54.986Z,97597.27
2018-07-26T13:20:24.278Z,97596.30
2018-07-26T13:22:53.317Z,97585.31
2018-07-26T13:25:22.630Z,97582.27
2018-07-26T13:27:52.031Z,97582.69
2018-07-26T13:30:21.310Z,97580.23
2018-07-26T13:32:50.695Z,97590.95
2018-07-26T13:35:20.189Z,97591.98
2018-07-26T13:37:49.512Z,97582.28
2018-07-26T13:40:18.869Z,97584.83
2018-07-26T13:42:48.133Z,97584.61
2018-07-26T13:45:17.432Z,97581.54
2018-07-26T13:47:46.788Z,97590.95
2018-07-26T13:50:16.125Z,97577.34
2018-07-26T13:52:45.287Z,97567.36
2018-07-26T13:55:14.638Z,97577.34
2018-07-26T13:57:44.818Z,97570.65
2018-07-26T14:00:14.890Z,97579.09
2018-07-26T14:02:45.063Z,97566.08
2018-07-26T14:05:14.522Z,97569.23
2018-07-26T14:07:44.542Z,97569.89
2018-07-26T14:10:13.941Z,97573.27
2018-07-26T14:12:43.841Z,97566.87
2018-07-26T14:15:13.386Z,97562.11
2018-07-26T14:17:42.889Z,97562.19
2018-07-26T14:20:13.051Z,97568.98
2018-07-26T14:22:42.580Z,97558.70
2018-07-26T14:25:11.930Z,97560.03
2018-07-26T14:27:41.055Z,97563.98
2018-07-26T14:30:10.833Z,97567.61
2018-07-26T14:32:40.172Z,97557.88
2018-07-26T14:35:09.506Z,97561.27
2018-07-26T14:37:38.814Z,97560.70
2018-07-26T14:40:08.124Z,97559.30
2018-07-26T14:42:37.186Z,97548.30
2018-07-26T14:45:06.799Z,97553.62
2018-07-26T14:47:36.126Z,97543.17
2018-07-26T14:50:05.840Z,97551.44
2018-07-26T14:52:35.145Z,97553.23
2018-07-26T14:55:04.743Z,97548.48
2018-07-26T14:57:34.282Z,97549.80
2018-07-26T15:00:03.725Z,97545.00
2018-07-26T15:02:33.038Z,97534.06
2018-07-26T15:05:02.361Z,97541.98
2018-07-26T15:07:31.643Z,97539.26
2018-07-26T15:10:00.964Z,97542.79
2018-07-26T15:12:30.206Z,97541.13
2018-07-26T15:14:59.482Z,97544.33
2018-07-26T15:17:28.730Z,97534.91
2018-07-26T15:19:57.996Z,97546.48
2018-07-26T15:22:27.319Z,97533.30
2018-07-26T15:24:56.610Z,97538.25
2018-07-26T15:27:25.925Z,97534.25
2018-07-26T15:29:55.355Z,97533.81
2018-07-26T15:32:24.751Z,97535.61
2018-07-26T15:34:54.167Z,97523.42
2018-07-26T15:37:23.473Z,97524.80
2018-07-26T15:39:52.797Z,97535.22
2018-07-26T15:42:22.115Z,97543.30
2018-07-26T15:44:51.526Z,97542.56
2018-07-26T15:47:20.769Z,97538.00
2018-07-26T15:49:50.091Z,97528.23
2018-07-26T15:52:19.345Z,97530.98
2018-07-26T15:54:48.649Z,97526.27
2018-07-26T15:57:17.957Z,97515.02
2018-07-26T15:59:47.226Z,97525.20
2018-07-26T16:02:16.591Z,97526.27
2018-07-26T16:04:45.930Z,97533.55
2018-07-26T16:07:15.317Z,97525.08
2018-07-26T16:09:44.633Z,97524.48
2018-07-26T16:12:14.076Z,97525.06
2018-07-26T16:14:43.398Z,97524.09
2018-07-26T16:17:12.686Z,97513.88
2018-07-26T16:19:42.077Z,97516.20
2018-07-26T16:22:11.381Z,97518.77
2018-07-26T16:24:40.764Z,97523.88
2018-07-26T16:27:10.098Z,97520.16
2018-07-26T16:29:39.416Z,97520.16
2018-07-26T16:32:08.823Z,97514.66
2018-07-26T16:34:38.150Z,97515.06
2018-07-26T16:37:07.521Z,97512.10
2018-07-26T16:39:36.894Z,97513.88
2018-07-26T16:42:06.339Z,97517.75
2018-07-26T16:44:35.739Z,97514.62
2018-07-26T16:47:05.245Z,97521.30
2018-07-26T16:49:34.695Z,97517.58
2018-07-26T16:52:04.200Z,97521.08
2018-07-26T16:54:33.494Z,97522.25
2018-07-26T16:57:02.887Z,97525.41
2018-07-26T16:59:32.406Z,97523.91
2018-07-26T17:02:02.170Z,97520.28
2018-07-26T17:04:31.548Z,97522.30
2018-07-26T17:07:01.507Z,97518.56
2018-07-26T17:09:30.850Z,97524.26
2018-07-26T17:12:00.348Z,97526.55
2018-07-26T17:14:29.675Z,97520.97
2018-07-26T17:16:59.083Z,97514.04
2018-07-26T17:19:29.143Z,97514.09
2018-07-26T17:21:58.440Z,97514.73
2018-07-26T17:24:27.856Z,97511.37
2018-07-26T17:26:57.279Z,97516.49
2018-07-26T17:29:26.654Z,97494.72
2018-07-26T17:31:56.117Z,97516.03
2018-07-26T17:34:25.432Z,97518.44
2018-07-26T17:36:54.743Z,97518.55
2018-07-26T17:39:24.000Z,97518.80
2018-07-26T17:41:53.397Z,97522.20
2018-07-26T17:44:22.701Z,97521.95
2018-07-26T17:46:52.062Z,97517.70
2018-07-26T17:49:21.411Z,97523.20
2018-07-26T17:51:50.730Z,97527.98
2018-07-26T17:54:20.102Z,97523.45
2018-07-26T17:56:49.442Z,97523.82
2018-07-26T17:59:18.720Z,97528.52
2018-07-26T18:01:48.181Z,97528.89
2018-07-26T18:04:17.571Z,97528.84
2018-07-26T18:06:47.083Z,97532.80
2018-07-26T18:09:16.498Z,97532.03
2018-07-26T18:11:45.714Z,97535.20
2018-07-26T18:14:14.745Z,97531.65
2018-07-26T18:16:44.236Z,97531.80
2018-07-26T18:19:13.365Z,97542.06
2018-07-26T18:21:43.094Z,97541.22
2018-07-26T18:24:12.363Z,97546.94
2018-07-26T18:26:41.633Z,97540.45
2018-07-26T18:29:11.120Z,97537.83
2018-07-26T18:31:40.607Z,97539.61
2018-07-26T18:34:10.405Z,97537.91
2018-07-26T18:36:39.797Z,97538.09
2018-07-26T18:39:11.849Z,97538.98
2018-07-26T18:41:41.305Z,97545.34
2018-07-26T18:44:11.165Z,97540.94
2018-07-26T18:46:40.510Z,97542.02
2018-07-26T18:49:10.241Z,97548.02
2018-07-26T18:51:40.669Z,97550.99
2018-07-26T18:54:11.217Z,97547.17
2018-07-26T18:56:40.250Z,97547.70
2018-07-26T18:59:10.517Z,97558.38
2018-07-26T19:01:39.836Z,97557.91
2018-07-26T19:04:09.524Z,97559.34
2018-07-26T19:06:38.655Z,97559.35
2018-07-26T19:09:11.642Z,97560.07
2018-07-26T19:11:41.657Z,97561.28
2018-07-26T19:14:11.555Z,97559.05
2018-07-26T19:16:40.961Z,97559.95
2018-07-26T19:19:11.008Z,97570.20
2018-07-26T19:21:40.382Z,97569.66
2018-07-26T19:24:10.188Z,97572.92
2018-07-26T19:26:39.510Z,97573.52
2018-07-26T19:29:09.043Z,97581.55
2018-07-26T19:31:38.691Z,97584.36
2018-07-26T19:34:11.145Z,97590.27
2018-07-26T19:36:40.507Z,97593.19
2018-07-26T19:39:11.837Z,97584.09
2018-07-26T19:41:41.848Z,97588.56
2018-07-26T19:44:11.348Z,97586.11
2018-07-26T19:46:40.575Z,97588.17
2018-07-26T19:49:09.925Z,97587.77
2018-07-26T19:51:39.270Z,97584.94
2018-07-26T19:54:08.757Z,97590.28
2018-07-26T19:56:38.021Z,97588.34
2018-07-26T19:59:07.381Z,97588.47
2018-07-26T20:01:36.525Z,97595.36
2018-07-26T20:04:06.064Z,97595.25
2018-07-26T20:06:35.425Z,97596.73
2018-07-26T20:09:08.223Z,97588.92
2018-07-26T20:11:37.591Z,97591.56
2018-07-26T20:14:07.842Z,97601.65
2018-07-26T20:16:37.540Z,97595.83
2018-07-26T20:19:07.022Z,97594.00
2018-07-26T20:21:36.452Z,97600.55
2018-07-26T20:24:05.843Z,97599.87
2018-07-26T20:26:35.188Z,97603.27
2018-07-26T20:29:04.476Z,97600.55
2018-07-26T20:31:34.243Z,97601.11
2018-07-26T20:34:03.556Z,97601.75
2018-07-26T20:36:32.878Z,97596.31
2018-07-26T20:39:02.310Z,97600.23
2018-07-26T20:41:31.662Z,97598.51
2018-07-26T20:44:01.112Z,97607.41
2018-07-26T20:46:30.491Z,97605.34
2018-07-26T20:48:59.819Z,97604.46
2018-07-26T20:51:29.170Z,97603.61
2018-07-26T20:53:58.615Z,97604.97
2018-07-26T20:56:27.872Z,97604.52
2018-07-26T20:58:57.174Z,97608.11
2018-07-26T21:01:26.443Z,97609.21
2018-07-26T21:03:55.755Z,97617.11
2018-07-26T21:06:25.046Z,97618.09
2018-07-26T21:08:54.400Z,97621.21
2018-07-26T21:11:23.714Z,97620.14
2018-07-26T21:13:53.098Z,97623.95
2018-07-26T21:16:22.509Z,97619.92
2018-07-26T21:18:51.771Z,97618.98
2018-07-26T21:21:21.134Z,97620.14
2018-07-26T21:23:50.421Z,97623.99
2018-07-26T21:26:19.728Z,97619.30
2018-07-26T21:28:48.746Z,97621.49
2018-07-26T21:31:18.037Z,97620.20
2018-07-26T21:33:47.323Z,97622.61
2018-07-26T21:36:16.625Z,97622.22
2018-07-26T21:38:45.889Z,97620.97
2018-07-26T21:41:15.555Z,97623.78
2018-07-26T21:43:44.816Z,97620.20
2018-07-26T21:46:14.361Z,97619.66
2018-07-26T21:48:43.673Z,97615.36
2018-07-26T21:51:13.138Z,97612.33
2018-07-26T21:53:42.504Z,97613.45
2018-07-26T21:56:11.804Z,97615.63
2018-07-26T21:58:41.076Z,97620.05
2018-07-26T22:01:10.367Z,97624.09
2018-07-26T22:03:39.671Z,97617.98
2018-07-26T22:06:09.030Z,97617.39
2018-07-26T22:08:38.383Z,97621.80
2018-07-26T22:11:07.755Z,97615.67
2018-07-26T22:13:37.108Z,97602.86
2018-07-26T22:16:06.585Z,97614.89
2018-07-26T22:18:35.847Z,97618.96
2018-07-26T22:21:05.199Z,97612.34
2018-07-26T22:23:34.486Z,97613.00
2018-07-26T22:26:03.773Z,97611.89
2018-07-26T22:28:33.143Z,97612.30
2018-07-26T22:31:02.558Z,97605.92
2018-07-26T22:33:31.935Z,97606.33
2018-07-26T22:36:01.241Z,97606.94
2018-07-26T22:38:30.560Z,97605.67
2018-07-26T22:40:59.924Z,97607.63
2018-07-26T22:43:29.259Z,97602.86
2018-07-26T22:45:58.571Z,97605.31
2018-07-26T22:48:27.852Z,97597.45
2018-07-26T22:50:57.161Z,97604.86
2018-07-26T22:53:26.445Z,97603.02
2018-07-26T22:55:55.754Z,97605.23
2018-07-26T22:58:25.081Z,97605.96
2018-07-26T23:00:54.393Z,97600.95
2018-07-26T23:03:23.637Z,97597.20
2018-07-26T23:05:52.904Z,97606.11
2018-07-26T23:08:22.312Z,97603.06
2018-07-26T23:10:51.574Z,97601.83
2018-07-26T23:13:20.991Z,97598.88
2018-07-26T23:15:50.302Z,97606.74
2018-07-26T23:18:19.721Z,97603.19
2018-07-26T23:20:49.008Z,97600.97
2018-07-26T23:23:18.329Z,97597.75
2018-07-26T23:25:47.612Z,97595.84
2018-07-26T23:28:17.009Z,97601.72
2018-07-26T23:30:46.032Z,97602.14
2018-07-26T23:33:15.344Z,97602.11
2018-07-26T23:35:44.635Z,97598.44
2018-07-26T23:38:13.895Z,97602.93
2018-07-26T23:40:43.203Z,97603.06
2018-07-26T23:43:12.502Z,97597.04
2018-07-26T23:45:41.757Z,97597.29
2018-07-26T23:48:11.032Z,97600.28
2018-07-26T23:50:40.410Z,97598.09
2018-07-26T23:53:09.716Z,97598.52
2018-07-26T23:55:39.026Z,97595.43
2018-07-26T23:58:08.323Z,97593.53
